x

Yucatan Basin - 120 Nm Ese Of Cozumel, Mx (42056) Wave Buoy

2:50pm - Tue 29th Jul 2014 All times are CDT. -5 hours from GMT.

  • Sig Wave height 3.6ft
  • Swell Direction
  • Peak Period 9s
  • Average Period 6s
  • Wind
    11mph, 13mph gusts
  • Air Temp 85°f
  • Sea Pressure 1016.1mb
  •  Yucatan Basin - 120 Nm Ese Of Cozumel, Mx
  •  Yucatan Basin - 120 Nm Ese Of Cozumel, Mx

More Historic Weather Station data

Upgrade to MSW Pro to gain access to the past 30 days of data for over 8000 Wavebouys and Weather Stations around the globe.

Join Pro

Comparision Forecast

View Surf forecast
   
Tue 07/29 2:50pm 3.5ft 9s 6s 11 13 mph 1016.1mb 85f
1:50pm 4ft 8s 6s 11 13 mph 1016.4mb 85f
12:50pm 4ft 8s 6s 11 13 mph 1016.6mb 85f
11:50am 3.5ft 7s 6s 9 11 mph 1016.7mb 85f
10:50am 3.5ft 8s 6s 9 11 mph 1016.5mb 85f
9:50am 3.5ft 7s 6s 7 9 mph 1016.4mb 84f
8:50am 3.5ft 8s 6s 7 9 mph 1015.8mb 84f
7:50am 3.5ft 8s 6s 7
mph
1015.7mb 84f
6:50am 3.5ft 8s 6s 4 7 mph 1015.8mb 84f
5:50am 3.5ft 9s 6s 7
mph
1015.6mb 84f
4:50am 3.5ft 6s 6s 7
mph
1015.8mb 84f
3:50am 4ft 8s 6s 7
mph
1015.6mb 84f
2:50am 3.5ft 9s 6s 7 9 mph 1015.8mb 84f
1:50am 3.5ft 6s 5s 9 11 mph 1016.1mb 84f
12:50am 4ft 8s 6s 11 13 mph 1016.4mb 85f
Mon 07/28 11:50pm 3.5ft 6s 6s 9
mph
1016.9mb 85f
10:50pm 3.5ft 8s 5s 11 13 mph 1017.1mb 84f
9:50pm 3.5ft 7s 5s 11 13 mph 1017.6mb 83f
8:50pm 3.5ft 8s 5s 7 9 mph 1017.3mb 81f
7:50pm 3.5ft 8s 5s 13 16 mph 1016.9mb 80f
6:50pm 3.5ft 7s 5s 16 18 mph 1016.7mb 79f
5:50pm 3.5ft 7s 5s 11 27 mph 1016.1mb 75f
4:50pm 3.5ft 6s 5s 11 13 mph 1015.3mb 86f
3:50pm 3.5ft 7s 5s 11 13 mph 1015.7mb 86f
2:50pm 3.5ft 8s 5s 13
mph
1015.9mb 85f
1:50pm 3.5ft 8s 5s 11 13 mph 1016.7mb 85f
12:50pm 3.5ft 7s 5s 11 13 mph 1017mb 85f
11:50am 4ft 8s 5s 13 16 mph 1017.3mb 85f
10:50am 3.5ft 7s 5s 13 16 mph 1017.3mb 85f
9:50am 3.5ft 9s 5s 13 16 mph 1017.1mb 85f
8:50am 3.5ft 7s 5s 13 16 mph 1016.8mb 85f
7:50am 3.5ft 9s 5s 11 13 mph 1016.6mb 85f
6:50am 3.5ft 8s 5s 13 16 mph 1016.2mb 85f
5:50am 3.5ft 8s 6s 9 11 mph 1015.8mb 84f
4:50am 3.5ft 9s 6s 13
mph
1015.4mb 84f
3:50am 4ft 9s 6s 11 13 mph 1015.2mb 85f
2:50am 3.5ft 9s 5s 11 13 mph 1015.6mb 85f
1:50am 3.5ft 9s 5s 13 16 mph 1016.2mb 85f
12:50am 3.5ft 8s 5s 13 16 mph 1017.1mb 85f
Sun 07/27 11:50pm 3.5ft 7s 5s 13 16 mph 1017.3mb 85f
10:50pm 3.5ft 9s 6s 13 16 mph 1017.3mb 85f
9:50pm 3.5ft 8s 5s 11 13 mph 1017mb 85f
8:50pm 4ft 9s 5s 13 16 mph 1016.7mb 85f
7:50pm 4ft 7s 5s 13 16 mph 1016.3mb 85f
6:50pm 3.5ft 9s 5s 13 16 mph 1016mb 85f
5:50pm 4ft 7s 5s 13 16 mph 1016.1mb 86f
4:50pm 4.5ft 7s 5s 13
mph
1015.7mb 86f
3:50pm 4.5ft 7s 5s 11 13 mph 1016.1mb 86f
2:50pm 4.5ft 7s 5s 11 13 mph 1016.3mb 86f
1:50pm 4.5ft 9s 5s 11 13 mph 1016.6mb 85f
12:50pm 4.5ft 7s 5s 11 13 mph 1017.2mb 86f
11:50am 4.5ft 7s 5s 16 18 mph 1017.5mb 85f
10:50am 4.5ft 7s 5s 16 20 mph 1017.7mb 83f
9:50am 4ft 7s 5s 13 18 mph 1017.2mb 85f
8:50am 4ft 7s 5s 16 18 mph 1016.7mb 85f
7:50am 3.5ft 9s 6s 16
mph
1016.6mb 85f
6:50am 4ft 9s 6s 13 16 mph 1015.9mb 84f
5:50am 4ft 7s 6s 11 13 mph 1015.5mb 84f
4:50am 3.5ft 9s 6s 9 11 mph 1015.1mb 84f
3:50am 3.5ft 9s 6s 7 9 mph 1015.2mb 84f
2:50am 4ft 9s 6s 7 9 mph 1015.5mb 84f
1:50am 3.5ft 9s 6s 7 9 mph 1015.7mb 85f
12:50am 3.5ft 7s 6s 9 13 mph 1016.8mb 85f
Sat 07/26 11:50pm 4ft 9s 6s 11 13 mph 1017.3mb 85f
10:50pm 3.5ft 9s 6s 11 13 mph 1017.2mb 85f
9:50pm 3.5ft 6s 6s 9 11 mph 1017.2mb 85f
8:50pm 4ft 9s 6s 9 11 mph 1016.7mb 85f
7:50pm 4ft 7s 6s 11 13 mph 1016.5mb 85f
6:50pm 3.5ft 9s 6s 13
mph
1015.9mb 85f
5:50pm 3.5ft 9s 5s 11 13 mph 1015.5mb 86f
4:50pm 3.5ft 9s 6s 13 16 mph 1015.4mb 86f
3:50pm 3.5ft 9s 6s 13 16 mph 1015.4mb 86f
2:50pm 3.5ft 9s 6s 11 13 mph 1015.9mb 85f
1:50pm 4ft 8s 6s 13 16 mph 1016.3mb 85f
12:50pm 3.5ft 8s 6s 13 16 mph 1016.7mb 85f
11:50am 3.5ft 9s 6s 11 13 mph 1017mb 85f
10:50am 3.5ft 8s 5s 11 13 mph 1016.8mb 85f
9:50am 4ft 9s 5s 13
mph
1016.8mb 85f
8:50am 4ft 9s 5s 11 13 mph 1016.5mb 85f
7:50am 4ft 9s 5s 11 13 mph 1016.1mb 85f
6:50am 4.5ft 9s 6s 16 18 mph 1015.5mb 85f
5:50am 4.5ft 9s 5s 13 16 mph 1014.8mb 85f
4:50am 4.5ft 9s 6s 16 18 mph 1014.3mb 85f
3:50am 4.5ft 10s 5s 13 16 mph 1014.6mb 84f
2:50am 4.5ft 9s 6s 13 16 mph 1014.9mb 85f
1:50am 4.5ft 9s 5s 13 16 mph 1015.5mb 85f
12:50am 4.5ft 9s 5s 13 16 mph 1016.2mb 85f
Fri 07/25 11:50pm 4.5ft 9s 6s 16 18 mph 1016.5mb 85f
10:50pm 4.5ft 9s 5s 16 18 mph 1016.3mb 85f
9:50pm 4.5ft 9s 5s 16 18 mph 1015.8mb 85f